createdAt,value
2018-11-05T00:00:04.370Z,99.99
2018-11-05T00:01:04.285Z,99.99
2018-11-05T00:02:04.214Z,99.99
2018-11-05T00:03:04.127Z,99.99
2018-11-05T00:04:04.036Z,99.99
2018-11-05T00:05:03.959Z,99.99
2018-11-05T00:06:03.870Z,99.99
2018-11-05T00:07:03.797Z,99.99
2018-11-05T00:08:04.014Z,99.99
2018-11-05T00:09:03.630Z,99.99
2018-11-05T00:10:03.546Z,99.99
2018-11-05T00:11:03.458Z,99.99
2018-11-05T00:12:03.400Z,99.99
2018-11-05T00:13:03.300Z,99.99
2018-11-05T00:14:03.231Z,99.99
2018-11-05T00:15:03.140Z,99.99
2018-11-05T00:16:03.048Z,99.99
2018-11-05T00:17:02.975Z,99.99
2018-11-05T00:18:02.901Z,99.99
2018-11-05T00:19:02.814Z,99.99
2018-11-05T00:20:02.726Z,99.99
2018-11-05T00:21:02.635Z,99.99
2018-11-05T00:22:02.564Z,99.99
2018-11-05T00:23:02.476Z,99.99
2018-11-05T00:24:02.407Z,99.99
2018-11-05T00:25:02.316Z,99.99
2018-11-05T00:26:02.237Z,99.99
2018-11-05T00:27:02.154Z,99.99
2018-11-05T00:28:02.067Z,99.99
2018-11-05T00:29:01.991Z,99.99
2018-11-05T00:30:01.903Z,99.99
2018-11-05T00:31:01.829Z,99.99
2018-11-05T00:32:01.739Z,99.99
2018-11-05T00:33:01.650Z,99.99
2018-11-05T00:34:01.583Z,99.99
2018-11-05T00:35:01.492Z,99.99
2018-11-05T00:36:01.426Z,99.99
2018-11-05T00:37:01.329Z,99.99
2018-11-05T00:38:01.238Z,99.99
2018-11-05T00:39:01.161Z,99.99
2018-11-05T00:40:01.092Z,99.99
2018-11-05T00:41:01.004Z,99.99
2018-11-05T00:42:00.924Z,99.99
2018-11-05T00:43:00.852Z,99.99
2018-11-05T00:44:00.756Z,99.99
2018-11-05T00:45:00.672Z,99.99
2018-11-05T00:46:00.592Z,99.99
2018-11-05T00:47:00.505Z,99.99
2018-11-05T00:48:00.426Z,99.99
2018-11-05T00:49:00.338Z,99.99
2018-11-05T00:50:00.257Z,99.99
2018-11-05T00:51:00.199Z,99.99
2018-11-05T00:52:00.090Z,99.99
2018-11-05T00:53:00.016Z,99.99
2018-11-05T00:53:59.926Z,99.99
2018-11-05T00:54:59.839Z,99.99
2018-11-05T00:55:59.767Z,99.99
2018-11-05T00:56:59.680Z,99.99
2018-11-05T00:57:59.602Z,99.99
2018-11-05T00:58:59.527Z,99.99
2018-11-05T00:59:59.431Z,99.99
2018-11-05T01:00:59.356Z,99.99
2018-11-05T01:01:59.269Z,99.99
2018-11-05T01:02:59.195Z,99.99
2018-11-05T01:03:59.112Z,99.99
2018-11-05T01:04:59.032Z,99.99
2018-11-05T01:05:58.943Z,99.99
2018-11-05T01:06:58.857Z,99.99
2018-11-05T01:07:59.077Z,99.99
2018-11-05T01:08:58.689Z,99.99
2018-11-05T01:09:58.619Z,99.99
2018-11-05T01:10:58.531Z,99.99
2018-11-05T01:11:58.446Z,99.99
2018-11-05T01:12:58.384Z,99.99
2018-11-05T01:13:58.280Z,99.99
2018-11-05T01:14:58.209Z,99.99
2018-11-05T01:15:58.121Z,99.99
2018-11-05T01:16:58.047Z,99.99
2018-11-05T01:17:57.957Z,99.99
2018-11-05T01:18:57.870Z,99.99
2018-11-05T01:19:57.790Z,99.99
2018-11-05T01:20:57.704Z,99.99
2018-11-05T01:21:57.636Z,99.99
2018-11-05T01:22:57.847Z,99.99
2018-11-05T01:23:57.456Z,99.99
2018-11-05T01:24:57.382Z,99.99
2018-11-05T01:25:57.304Z,99.99
2018-11-05T01:26:57.216Z,99.99
2018-11-05T01:27:57.137Z,99.99
2018-11-05T01:28:57.047Z,99.99
2018-11-05T01:29:56.967Z,99.99
2018-11-05T01:30:56.881Z,99.99
2018-11-05T01:31:56.809Z,99.99
2018-11-05T01:32:56.721Z,99.99
2018-11-05T01:33:56.649Z,99.99
2018-11-05T01:34:56.562Z,99.99
2018-11-05T01:35:56.470Z,99.99
2018-11-05T01:36:56.444Z,99.99
2018-11-05T01:37:56.310Z,99.99
2018-11-05T01:38:56.235Z,99.99
2018-11-05T01:39:56.144Z,99.99
2018-11-05T01:40:56.057Z,99.99
2018-11-05T01:41:56.013Z,99.99
2018-11-05T01:42:55.897Z,99.99
2018-11-05T01:43:55.824Z,99.99
2018-11-05T01:44:55.737Z,99.99
2018-11-05T01:45:55.650Z,99.99
2018-11-05T01:46:55.575Z,99.99
2018-11-05T01:47:55.483Z,99.99
2018-11-05T01:48:55.409Z,99.99
2018-11-05T01:49:55.319Z,99.99
2018-11-05T01:50:55.244Z,99.99
2018-11-05T01:51:55.162Z,99.99
2018-11-05T01:52:55.075Z,99.99
2018-11-05T01:53:55.010Z,99.99
2018-11-05T01:54:54.910Z,99.99
2018-11-05T01:55:54.838Z,99.99
2018-11-05T01:56:54.750Z,99.99
2018-11-05T01:57:54.923Z,99.99
2018-11-05T01:58:54.588Z,99.99
2018-11-05T01:59:54.495Z,99.99
2018-11-05T02:00:54.419Z,99.99
2018-11-05T02:01:54.337Z,99.99
2018-11-05T02:02:54.262Z,99.99
2018-11-05T02:03:54.170Z,99.99
2018-11-05T02:04:54.085Z,99.99
2018-11-05T02:05:54.011Z,99.99
2018-11-05T02:06:53.922Z,99.99
2018-11-05T02:07:53.864Z,99.99
2018-11-05T02:08:53.766Z,99.99
2018-11-05T02:09:53.674Z,99.99
2018-11-05T02:10:53.597Z,99.99
2018-11-05T02:11:53.513Z,99.99
2018-11-05T02:12:53.438Z,99.99
2018-11-05T02:13:53.365Z,99.99
2018-11-05T02:14:53.277Z,99.99
2018-11-05T02:15:53.203Z,99.99
2018-11-05T02:16:53.105Z,99.99
2018-11-05T02:17:53.327Z,99.99
2018-11-05T02:18:52.941Z,99.99
2018-11-05T02:19:52.866Z,99.99
2018-11-05T02:20:52.778Z,99.99
2018-11-05T02:21:52.703Z,99.99
2018-11-05T02:22:52.617Z,99.99
2018-11-05T02:23:52.529Z,99.99
2018-11-05T02:24:52.453Z,99.99
2018-11-05T02:25:52.367Z,99.99
2018-11-05T02:26:52.294Z,99.99
2018-11-05T02:27:52.204Z,99.99
2018-11-05T02:28:52.118Z,99.99
2018-11-05T02:29:52.043Z,99.99
2018-11-05T02:30:51.957Z,99.99
2018-11-05T02:31:51.891Z,99.99
2018-11-05T02:32:51.795Z,99.99
2018-11-05T02:33:51.721Z,99.99
2018-11-05T02:34:51.629Z,99.99
2018-11-05T02:35:51.543Z,99.99
2018-11-05T02:36:51.469Z,99.99
2018-11-05T02:37:51.380Z,99.99
2018-11-05T02:38:51.308Z,99.99
2018-11-05T02:39:51.218Z,99.99
2018-11-05T02:40:51.131Z,99.99
2018-11-05T02:41:51.055Z,99.99
2018-11-05T02:42:50.968Z,99.99
2018-11-05T02:43:50.894Z,99.99
2018-11-05T02:44:50.805Z,99.99
2018-11-05T02:45:50.731Z,99.99
2018-11-05T02:46:50.656Z,99.99
2018-11-05T02:47:50.559Z,99.99
2018-11-05T02:48:50.481Z,99.99
2018-11-05T02:49:50.396Z,99.99
2018-11-05T02:50:50.326Z,99.99
2018-11-05T02:51:50.232Z,99.99
2018-11-05T02:52:50.145Z,99.99
2018-11-05T02:53:50.070Z,99.99
2018-11-05T02:54:49.995Z,99.99
2018-11-05T02:55:49.910Z,99.99
2018-11-05T02:56:49.819Z,99.99
2018-11-05T02:57:49.989Z,99.99
2018-11-05T02:58:49.655Z,99.99
2018-11-05T02:59:49.569Z,99.99
2018-11-05T03:00:49.493Z,99.99
2018-11-05T03:01:49.408Z,99.99
2018-11-05T03:02:49.335Z,99.99
2018-11-05T03:03:49.241Z,99.99
2018-11-05T03:04:49.159Z,99.99
2018-11-05T03:05:49.096Z,99.99
2018-11-05T03:06:48.998Z,99.99
2018-11-05T03:07:48.918Z,99.99
2018-11-05T03:08:48.829Z,99.99
2018-11-05T03:09:48.753Z,99.99
2018-11-05T03:10:48.665Z,99.99
2018-11-05T03:11:48.582Z,99.99
2018-11-05T03:12:48.507Z,99.99
2018-11-05T03:13:48.419Z,99.99
2018-11-05T03:14:48.346Z,99.99
2018-11-05T03:15:48.259Z,99.99
2018-11-05T03:16:48.176Z,99.99
2018-11-05T03:17:48.092Z,99.99
2018-11-05T03:18:48.008Z,99.99
2018-11-05T03:19:47.929Z,99.99
2018-11-05T03:20:47.846Z,99.99
2018-11-05T03:21:47.767Z,99.99
2018-11-05T03:22:47.934Z,99.99
2018-11-05T03:23:47.592Z,99.99
2018-11-05T03:24:47.518Z,99.99
2018-11-05T03:25:47.429Z,99.99
2018-11-05T03:26:47.355Z,99.99
2018-11-05T03:27:47.269Z,99.99
2018-11-05T03:28:47.180Z,99.99
2018-11-05T03:29:47.106Z,99.99
2018-11-05T03:30:47.031Z,99.99
2018-11-05T03:31:46.944Z,99.99
2018-11-05T03:32:46.871Z,99.99
2018-11-05T03:33:46.780Z,99.99
2018-11-05T03:34:46.695Z,99.99
2018-11-05T03:35:46.681Z,99.99
2018-11-05T03:36:46.533Z,99.99
2018-11-05T03:37:46.445Z,99.99
2018-11-05T03:38:46.369Z,99.99
2018-11-05T03:39:46.281Z,99.99
2018-11-05T03:40:46.195Z,99.99
2018-11-05T03:41:46.119Z,99.99
2018-11-05T03:42:46.041Z,99.99
2018-11-05T03:43:45.960Z,99.99
2018-11-05T03:44:45.873Z,99.99
2018-11-05T03:45:45.798Z,99.99
2018-11-05T03:46:45.722Z,99.99
2018-11-05T03:47:45.620Z,99.99
2018-11-05T03:48:45.550Z,99.99
2018-11-05T03:49:45.458Z,99.99
2018-11-05T03:50:45.382Z,99.99
2018-11-05T03:51:45.298Z,99.99
2018-11-05T03:52:45.222Z,99.99
2018-11-05T03:53:45.133Z,99.99
2018-11-05T03:54:45.047Z,99.99
2018-11-05T03:55:45.033Z,99.99
2018-11-05T03:56:44.988Z,99.99
2018-11-05T03:57:44.808Z,99.99
2018-11-05T03:58:44.721Z,99.99
2018-11-05T03:59:44.646Z,99.99
2018-11-05T04:00:44.559Z,99.99
2018-11-05T04:01:44.480Z,99.99
2018-11-05T04:02:44.397Z,99.99
2018-11-05T04:03:44.309Z,99.99
2018-11-05T04:04:44.224Z,99.99
2018-11-05T04:05:44.147Z,99.99
2018-11-05T04:06:44.060Z,99.99
2018-11-05T04:07:43.985Z,99.99
2018-11-05T04:08:43.898Z,99.99
2018-11-05T04:09:43.826Z,99.99
2018-11-05T04:10:43.734Z,99.99
2018-11-05T04:11:43.648Z,99.99
2018-11-05T04:12:43.573Z,99.99
2018-11-05T04:13:43.498Z,99.99
2018-11-05T04:14:43.409Z,99.99
2018-11-05T04:15:43.411Z,99.99
2018-11-05T04:16:43.236Z,99.99
2018-11-05T04:17:43.160Z,99.99
2018-11-05T04:18:43.074Z,99.99
2018-11-05T04:19:43.001Z,99.99
2018-11-05T04:20:42.910Z,99.99
2018-11-05T04:21:42.840Z,99.99
2018-11-05T04:22:42.751Z,99.99
2018-11-05T04:23:42.662Z,99.99
2018-11-05T04:24:42.597Z,99.99
2018-11-05T04:25:42.501Z,99.99
2018-11-05T04:26:42.426Z,99.99
2018-11-05T04:27:42.438Z,99.99
2018-11-05T04:28:42.254Z,99.99
2018-11-05T04:29:42.174Z,99.99
2018-11-05T04:30:42.087Z,99.99
2018-11-05T04:31:42.024Z,99.99
2018-11-05T04:32:41.925Z,99.99
2018-11-05T04:33:41.851Z,99.99
2018-11-05T04:34:41.762Z,99.99
2018-11-05T04:35:41.679Z,99.99
2018-11-05T04:36:41.602Z,99.99
2018-11-05T04:37:41.814Z,99.99
2018-11-05T04:38:41.437Z,99.99
2018-11-05T04:39:41.355Z,99.99
2018-11-05T04:40:41.264Z,99.99
2018-11-05T04:41:41.191Z,99.99
2018-11-05T04:42:41.102Z,99.99
2018-11-05T04:43:41.027Z,99.99
2018-11-05T04:44:40.940Z,99.99
2018-11-05T04:45:40.856Z,99.99
2018-11-05T04:46:40.780Z,99.99
2018-11-05T04:47:40.689Z,99.99
2018-11-05T04:48:40.615Z,99.99
2018-11-05T04:49:40.527Z,99.99
2018-11-05T04:50:40.453Z,99.99
2018-11-05T04:51:40.378Z,99.99
2018-11-05T04:52:40.277Z,99.99
2018-11-05T04:53:40.206Z,99.99
2018-11-05T04:54:40.115Z,99.99
2018-11-05T04:55:40.040Z,99.99
2018-11-05T04:56:39.957Z,99.99
2018-11-05T04:57:40.118Z,99.99
2018-11-05T04:58:39.790Z,99.99
2018-11-05T04:59:39.703Z,99.99
2018-11-05T05:00:39.634Z,99.99
2018-11-05T05:01:39.541Z,99.99
2018-11-05T05:02:39.769Z,99.99
2018-11-05T05:03:39.379Z,99.99
2018-11-05T05:04:39.306Z,99.99
2018-11-05T05:05:39.216Z,99.99
2018-11-05T05:06:39.128Z,99.99
2018-11-05T05:07:39.045Z,99.99
2018-11-05T05:08:38.967Z,99.99
2018-11-05T05:09:38.879Z,99.99
2018-11-05T05:10:38.805Z,99.99
2018-11-05T05:11:38.717Z,99.99
2018-11-05T05:12:38.641Z,99.99
2018-11-05T05:13:38.568Z,99.99
2018-11-05T05:14:38.468Z,99.99
2018-11-05T05:15:38.392Z,99.99
2018-11-05T05:16:38.305Z,99.99
2018-11-05T05:17:38.232Z,99.99
2018-11-05T05:18:38.156Z,99.99
2018-11-05T05:19:38.056Z,99.99
2018-11-05T05:20:37.985Z,99.99
2018-11-05T05:21:37.892Z,99.99
2018-11-05T05:22:37.921Z,99.99
2018-11-05T05:23:37.732Z,99.99
2018-11-05T05:24:37.657Z,99.99
2018-11-05T05:25:37.568Z,99.99
2018-11-05T05:26:37.481Z,99.99
2018-11-05T05:27:37.406Z,99.99
2018-11-05T05:28:37.318Z,99.99
2018-11-05T05:29:37.247Z,99.99
2018-11-05T05:30:37.157Z,99.99
2018-11-05T05:31:37.069Z,99.99
2018-11-05T05:32:37.000Z,99.99
2018-11-05T05:33:36.948Z,99.99
2018-11-05T05:34:36.833Z,99.99
2018-11-05T05:35:36.747Z,99.99
2018-11-05T05:36:36.658Z,99.99
2018-11-05T05:37:36.582Z,99.99
2018-11-05T05:38:36.495Z,99.99
2018-11-05T05:39:36.420Z,99.99
2018-11-05T05:40:36.341Z,99.99
2018-11-05T05:41:36.257Z,99.99
2018-11-05T05:42:36.169Z,99.99
2018-11-05T05:43:36.083Z,99.99
2018-11-05T05:44:36.008Z,99.99
2018-11-05T05:45:35.920Z,99.99
2018-11-05T05:46:35.845Z,99.99
2018-11-05T05:47:35.759Z,99.99
2018-11-05T05:48:35.671Z,99.99
2018-11-05T05:49:35.600Z,99.99
2018-11-05T05:50:35.509Z,99.99
2018-11-05T05:51:35.434Z,99.99
2018-11-05T05:52:35.348Z,99.99
2018-11-05T05:53:35.271Z,99.99
2018-11-05T05:54:35.188Z,99.99
2018-11-05T05:55:35.096Z,99.99
2018-11-05T05:56:35.022Z,99.99
2018-11-05T05:57:34.934Z,99.99
2018-11-05T05:58:34.863Z,99.99
2018-11-05T05:59:34.771Z,99.99
2018-11-05T06:00:34.687Z,99.99
2018-11-05T06:01:34.610Z,99.99
2018-11-05T06:02:34.522Z,99.99
2018-11-05T06:03:34.447Z,99.99
2018-11-05T06:04:34.360Z,99.99
2018-11-05T06:05:34.272Z,99.99
2018-11-05T06:06:34.285Z,99.99
2018-11-05T06:07:34.110Z,99.99
2018-11-05T06:08:34.037Z,99.99
2018-11-05T06:09:33.961Z,99.99
2018-11-05T06:10:33.861Z,99.99
2018-11-05T06:11:33.790Z,99.99
2018-11-05T06:12:33.698Z,99.99
2018-11-05T06:13:33.623Z,99.99
2018-11-05T06:14:33.537Z,99.99
2018-11-05T06:15:33.461Z,99.99
2018-11-05T06:16:33.374Z,99.99
2018-11-05T06:17:33.288Z,99.99
2018-11-05T06:18:33.213Z,99.99
2018-11-05T06:19:33.124Z,99.99
2018-11-05T06:20:33.038Z,99.99
2018-11-05T06:21:32.962Z,99.99
2018-11-05T06:22:32.874Z,99.99
2018-11-05T06:23:32.799Z,99.99
2018-11-05T06:24:32.713Z,99.99
2018-11-05T06:25:32.626Z,99.99
2018-11-05T06:26:32.560Z,99.99
2018-11-05T06:27:32.463Z,99.99
2018-11-05T06:28:32.465Z,99.99
2018-11-05T06:29:32.300Z,99.99
2018-11-05T06:30:32.225Z,99.99
2018-11-05T06:31:32.138Z,99.99
2018-11-05T06:32:32.055Z,99.99
2018-11-05T06:33:31.989Z,99.99
2018-11-05T06:34:31.889Z,99.99
2018-11-05T06:35:31.875Z,99.99
2018-11-05T06:36:31.728Z,99.99
2018-11-05T06:37:31.943Z,99.99
2018-11-05T06:38:31.567Z,99.99
2018-11-05T06:39:31.476Z,99.99
2018-11-05T06:40:31.401Z,99.99
2018-11-05T06:41:31.397Z,99.99
2018-11-05T06:42:31.228Z,99.99
2018-11-05T06:43:31.152Z,99.99
2018-11-05T06:44:31.066Z,99.99
2018-11-05T06:45:31.110Z,99.99
2018-11-05T06:46:30.902Z,99.99
2018-11-05T06:47:30.817Z,99.99
2018-11-05T06:48:30.740Z,99.99
2018-11-05T06:49:30.652Z,99.99
2018-11-05T06:50:30.578Z,99.99
2018-11-05T06:51:30.491Z,99.99
2018-11-05T06:52:30.404Z,99.99
2018-11-05T06:53:30.329Z,99.99
2018-11-05T06:54:30.243Z,99.99
2018-11-05T06:55:30.166Z,99.99
2018-11-05T06:56:30.079Z,99.99
2018-11-05T06:57:30.046Z,99.99
2018-11-05T06:58:29.917Z,99.99
2018-11-05T06:59:29.848Z,99.99
2018-11-05T07:00:29.766Z,99.99
2018-11-05T07:01:29.666Z,99.99
2018-11-05T07:02:29.677Z,99.99
2018-11-05T07:03:29.507Z,99.99
2018-11-05T07:04:29.429Z,99.99
2018-11-05T07:05:29.355Z,99.99
2018-11-05T07:06:29.269Z,99.99
2018-11-05T07:07:29.181Z,99.99
2018-11-05T07:08:29.092Z,99.99
2018-11-05T07:09:29.018Z,99.99
2018-11-05T07:10:28.930Z,99.99
2018-11-05T07:11:28.901Z,99.99
2018-11-05T07:12:28.770Z,99.99
2018-11-05T07:13:28.680Z,99.99
2018-11-05T07:14:28.607Z,99.99
2018-11-05T07:15:28.522Z,99.99
2018-11-05T07:16:28.430Z,99.99
2018-11-05T07:17:28.372Z,99.99
2018-11-05T07:18:28.351Z,99.99
2018-11-05T07:19:28.337Z,99.99
2018-11-05T07:20:28.108Z,99.99
2018-11-05T07:21:28.031Z,99.99
2018-11-05T07:22:27.944Z,99.99
2018-11-05T07:23:27.870Z,99.99
2018-11-05T07:24:27.781Z,99.99
2018-11-05T07:25:27.697Z,99.99
2018-11-05T07:26:27.675Z,99.99
2018-11-05T07:27:27.598Z,99.99
2018-11-05T07:28:27.444Z,99.99
2018-11-05T07:29:27.371Z,99.99
2018-11-05T07:30:27.285Z,99.99
2018-11-05T07:31:27.207Z,99.99
2018-11-05T07:32:27.121Z,99.99
2018-11-05T07:33:27.185Z,99.99
2018-11-05T07:34:27.035Z,99.99
2018-11-05T07:35:26.871Z,99.99
2018-11-05T07:36:26.796Z,99.99
2018-11-05T07:37:26.958Z,99.99
2018-11-05T07:38:26.634Z,99.99
2018-11-05T07:39:26.547Z,99.99
2018-11-05T07:40:26.457Z,99.99
2018-11-05T07:41:26.384Z,99.99
2018-11-05T07:42:26.297Z,99.99
2018-11-05T07:43:26.222Z,99.99
2018-11-05T07:44:26.134Z,99.99
2018-11-05T07:45:26.047Z,99.99
2018-11-05T07:46:25.975Z,99.99
2018-11-05T07:47:25.884Z,99.99
2018-11-05T07:48:25.809Z,99.99
2018-11-05T07:49:25.723Z,99.99
2018-11-05T07:50:25.750Z,99.99
2018-11-05T07:51:25.579Z,99.99
2018-11-05T07:52:25.473Z,99.99
2018-11-05T07:53:25.399Z,99.99
2018-11-05T07:54:25.310Z,99.99
2018-11-05T07:55:25.249Z,99.99
2018-11-05T07:56:25.148Z,99.99
2018-11-05T07:57:25.062Z,99.99
2018-11-05T07:58:24.987Z,99.99
2018-11-05T07:59:24.899Z,99.99
2018-11-05T08:00:24.824Z,99.99
2018-11-05T08:01:24.737Z,99.99
2018-11-05T08:02:24.660Z,99.99
2018-11-05T08:03:24.576Z,99.99
2018-11-05T08:04:24.486Z,99.99
2018-11-05T08:05:24.411Z,99.99
2018-11-05T08:06:24.325Z,99.99
2018-11-05T08:07:24.248Z,99.99
2018-11-05T08:08:24.281Z,99.99
2018-11-05T08:09:24.088Z,99.99
2018-11-05T08:10:24.001Z,99.99
2018-11-05T08:11:23.912Z,99.99
2018-11-05T08:12:23.837Z,99.99
2018-11-05T08:13:23.751Z,99.99
2018-11-05T08:14:23.780Z,99.99
2018-11-05T08:15:23.587Z,99.99
2018-11-05T08:16:23.512Z,99.99
2018-11-05T08:17:23.426Z,99.99
2018-11-05T08:18:23.338Z,99.99
2018-11-05T08:19:23.262Z,99.99
2018-11-05T08:20:23.176Z,99.99
2018-11-05T08:21:23.101Z,99.99
2018-11-05T08:22:23.014Z,99.99
2018-11-05T08:23:22.939Z,99.99
2018-11-05T08:24:22.851Z,99.99
2018-11-05T08:25:22.767Z,99.99
2018-11-05T08:26:22.688Z,99.99
2018-11-05T08:27:22.601Z,99.99
2018-11-05T08:28:22.525Z,99.99
2018-11-05T08:29:22.453Z,99.99
2018-11-05T08:30:22.366Z,99.99
2018-11-05T08:31:22.277Z,99.99
2018-11-05T08:32:22.189Z,99.99
2018-11-05T08:33:22.116Z,99.99
2018-11-05T08:34:22.047Z,99.99
2018-11-05T08:35:21.952Z,99.99
2018-11-05T08:36:21.865Z,99.99
2018-11-05T08:37:21.789Z,99.99
2018-11-05T08:38:21.704Z,99.99
2018-11-05T08:39:21.614Z,99.99
2018-11-05T08:40:21.563Z,99.99
2018-11-05T08:41:21.455Z,99.99
2018-11-05T08:42:21.382Z,99.99
2018-11-05T08:43:21.302Z,99.99
2018-11-05T08:44:21.215Z,99.99
2018-11-05T08:45:21.128Z,99.99
2018-11-05T08:46:21.041Z,99.99
2018-11-05T08:47:20.965Z,99.99
2018-11-05T08:48:20.880Z,99.99
2018-11-05T08:49:20.804Z,99.99
2018-11-05T08:50:20.865Z,99.99
2018-11-05T08:51:20.934Z,99.99
2018-11-05T08:52:20.555Z,99.99
2018-11-05T08:53:20.481Z,99.99
2018-11-05T08:54:20.392Z,99.99
2018-11-05T08:55:20.307Z,99.99
2018-11-05T08:56:20.229Z,99.99
2018-11-05T08:57:20.143Z,99.99
2018-11-05T08:58:20.066Z,99.99
2018-11-05T08:59:19.979Z,99.99
2018-11-05T09:00:19.905Z,99.99
2018-11-05T09:01:19.817Z,99.99
2018-11-05T09:02:19.755Z,99.99
2018-11-05T09:03:19.656Z,99.99
2018-11-05T09:04:19.567Z,99.99
2018-11-05T09:05:19.577Z,99.99
2018-11-05T09:06:19.405Z,99.99
2018-11-05T09:07:19.331Z,99.99
2018-11-05T09:08:19.245Z,99.99
2018-11-05T09:09:19.168Z,99.99
2018-11-05T09:10:19.218Z,99.99
2018-11-05T09:11:19.370Z,99.99
2018-11-05T09:12:18.919Z,99.99
2018-11-05T09:13:18.832Z,99.99
2018-11-05T09:14:18.758Z,99.99
2018-11-05T09:15:18.670Z,99.99
2018-11-05T09:16:18.696Z,99.99
2018-11-05T09:17:18.507Z,99.99
2018-11-05T09:18:18.422Z,99.99
2018-11-05T09:19:18.356Z,99.99
2018-11-05T09:20:18.257Z,99.99
2018-11-05T09:21:18.183Z,99.99
2018-11-05T09:22:18.095Z,99.99
2018-11-05T09:23:18.021Z,99.99
2018-11-05T09:24:17.934Z,99.99
2018-11-05T09:25:17.859Z,99.99
2018-11-05T09:26:17.785Z,99.99
2018-11-05T09:27:17.684Z,99.99
2018-11-05T09:28:17.609Z,99.99
2018-11-05T09:29:17.521Z,99.99
2018-11-05T09:30:17.449Z,99.99
2018-11-05T09:31:17.360Z,99.99
2018-11-05T09:32:17.288Z,99.99
2018-11-05T09:33:17.196Z,99.99
2018-11-05T09:34:17.135Z,99.99
2018-11-05T09:35:17.036Z,99.99
2018-11-05T09:36:16.967Z,99.99
2018-11-05T09:37:16.872Z,99.99
2018-11-05T09:38:16.796Z,99.99
2018-11-05T09:39:16.709Z,99.99
2018-11-05T09:40:16.623Z,99.99
2018-11-05T09:41:16.547Z,99.99
2018-11-05T09:42:16.461Z,99.99
2018-11-05T09:43:16.386Z,99.99
2018-11-05T09:44:16.297Z,99.99
2018-11-05T09:45:16.223Z,99.99
2018-11-05T09:46:16.135Z,99.99
2018-11-05T09:47:16.060Z,99.99
2018-11-05T09:48:15.972Z,99.99
2018-11-05T09:49:15.899Z,99.99
2018-11-05T09:50:15.810Z,99.99
2018-11-05T09:51:15.723Z,99.99
2018-11-05T09:52:15.661Z,99.99
2018-11-05T09:53:15.561Z,99.99
2018-11-05T09:54:15.486Z,99.99
2018-11-05T09:55:15.399Z,99.99
2018-11-05T09:56:15.324Z,99.99
2018-11-05T09:57:15.338Z,99.99
2018-11-05T09:58:15.150Z,99.99
2018-11-05T09:59:15.073Z,99.99
2018-11-05T10:00:14.988Z,99.99
2018-11-05T10:01:14.921Z,99.99
2018-11-05T10:02:14.825Z,99.99
2018-11-05T10:03:14.900Z,99.99
2018-11-05T10:04:14.829Z,99.99
2018-11-05T10:05:14.805Z,99.99
2018-11-05T10:06:14.512Z,99.99
2018-11-05T10:07:14.426Z,99.99
2018-11-05T10:08:14.345Z,99.99
2018-11-05T10:09:14.251Z,99.99
2018-11-05T10:10:14.238Z,99.99
2018-11-05T10:11:14.089Z,99.99
2018-11-05T10:12:14.014Z,99.99
2018-11-05T10:13:13.925Z,99.99
2018-11-05T10:14:13.850Z,99.99
2018-11-05T10:15:13.764Z,99.99
2018-11-05T10:16:13.732Z,99.99
2018-11-05T10:17:13.601Z,99.99
2018-11-05T10:18:13.527Z,99.99
2018-11-05T10:19:13.438Z,99.99
2018-11-05T10:20:13.364Z,99.99
2018-11-05T10:21:13.275Z,99.99
2018-11-05T10:22:13.200Z,99.99
2018-11-05T10:23:13.115Z,99.99
2018-11-05T10:24:13.040Z,99.99
2018-11-05T10:25:13.077Z,99.99
2018-11-05T10:26:12.922Z,99.99
2018-11-05T10:27:12.789Z,99.99
2018-11-05T10:28:12.715Z,99.99
2018-11-05T10:29:12.626Z,99.99
2018-11-05T10:30:12.551Z,99.99
2018-11-05T10:31:12.465Z,99.99
2018-11-05T10:32:12.394Z,99.99
2018-11-05T10:33:12.358Z,99.99
2018-11-05T10:34:12.227Z,99.99
2018-11-05T10:35:12.141Z,99.99
2018-11-05T10:36:12.067Z,99.99
2018-11-05T10:37:11.990Z,99.99
2018-11-05T10:38:11.903Z,99.99
2018-11-05T10:39:11.818Z,99.99
2018-11-05T10:40:11.842Z,99.99
2018-11-05T10:41:11.653Z,99.99
2018-11-05T10:42:11.578Z,99.99
2018-11-05T10:43:11.491Z,99.99
2018-11-05T10:44:11.453Z,99.99
2018-11-05T10:45:11.334Z,99.99
2018-11-05T10:46:11.260Z,99.99
2018-11-05T10:47:11.179Z,99.99
2018-11-05T10:48:11.092Z,99.99
2018-11-05T10:49:11.017Z,99.99
2018-11-05T10:50:10.935Z,99.99
2018-11-05T10:51:10.900Z,99.99
2018-11-05T10:52:10.867Z,99.99
2018-11-05T10:53:10.680Z,99.99
2018-11-05T10:54:10.621Z,99.99
2018-11-05T10:55:10.522Z,99.99
2018-11-05T10:56:10.444Z,99.99
2018-11-05T10:57:10.439Z,99.99
2018-11-05T10:58:10.323Z,99.99
2018-11-05T10:59:10.206Z,99.99
2018-11-05T11:00:10.119Z,99.99
2018-11-05T11:01:10.045Z,99.99
2018-11-05T11:02:09.956Z,99.99
2018-11-05T11:03:09.880Z,99.99
2018-11-05T11:04:09.939Z,99.99
2018-11-05T11:05:09.718Z,99.99
2018-11-05T11:06:09.634Z,99.99
2018-11-05T11:07:09.569Z,99.99
2018-11-05T11:08:09.469Z,99.99
2018-11-05T11:09:09.399Z,99.99
2018-11-05T11:10:09.307Z,99.99
2018-11-05T11:11:09.233Z,99.99
2018-11-05T11:12:09.145Z,99.99
2018-11-05T11:13:09.073Z,99.99
2018-11-05T11:14:08.982Z,99.99
2018-11-05T11:15:08.910Z,99.99
2018-11-05T11:16:08.820Z,99.99
2018-11-05T11:17:08.748Z,99.99
2018-11-05T11:18:08.670Z,99.99
2018-11-05T11:19:08.583Z,99.99
2018-11-05T11:20:08.507Z,99.99
2018-11-05T11:21:08.420Z,99.99
2018-11-05T11:22:08.445Z,99.99
2018-11-05T11:23:08.259Z,99.99
2018-11-05T11:24:08.197Z,99.99
2018-11-05T11:25:08.097Z,99.99
2018-11-05T11:26:08.021Z,99.99
2018-11-05T11:27:07.934Z,99.99
2018-11-05T11:28:07.877Z,99.99
2018-11-05T11:29:07.814Z,99.99
2018-11-05T11:30:07.697Z,99.99
2018-11-05T11:31:07.622Z,99.99
2018-11-05T11:32:07.548Z,99.99
2018-11-05T11:33:07.459Z,99.99
2018-11-05T11:34:07.377Z,99.99
2018-11-05T11:35:07.297Z,99.99
2018-11-05T11:36:07.209Z,99.99
2018-11-05T11:37:07.166Z,99.99
2018-11-05T11:38:07.060Z,99.99
2018-11-05T11:39:06.973Z,99.99
2018-11-05T11:40:06.898Z,99.99
2018-11-05T11:41:06.809Z,99.99
2018-11-05T11:42:06.735Z,99.99
2018-11-05T11:43:06.649Z,99.99
2018-11-05T11:44:06.609Z,99.99
2018-11-05T11:45:06.485Z,99.99
2018-11-05T11:46:06.463Z,99.99
2018-11-05T11:47:06.335Z,99.99
2018-11-05T11:48:06.249Z,99.99
2018-11-05T11:49:06.173Z,99.99
2018-11-05T11:50:06.088Z,99.99
2018-11-05T11:51:06.011Z,99.99
2018-11-05T11:52:05.936Z,99.99
2018-11-05T11:53:05.893Z,99.99
2018-11-05T11:54:05.774Z,99.62
2018-11-05T11:55:05.700Z,98.91
2018-11-05T11:56:05.602Z,97.95
2018-11-05T11:57:05.788Z,96.18
2018-11-05T11:58:05.438Z,95.79
2018-11-05T11:59:05.401Z,95.41
2018-11-05T12:00:05.275Z,95.56
2018-11-05T12:01:05.205Z,95.60
2018-11-05T12:02:05.275Z,94.45
2018-11-05T12:03:05.037Z,93.88
2018-11-05T12:04:05.119Z,93.16
2018-11-05T12:05:04.888Z,92.58
2018-11-05T12:06:04.801Z,92.49
2018-11-05T12:07:04.713Z,92.87
2018-11-05T12:08:04.638Z,92.20
2018-11-05T12:09:04.563Z,92.58
2018-11-05T12:10:04.478Z,91.91
2018-11-05T12:11:04.423Z,91.82
2018-11-05T12:12:04.317Z,91.43
2018-11-05T12:13:04.251Z,91.38
2018-11-05T12:14:04.244Z,90.86
2018-11-05T12:15:04.239Z,91.43
2018-11-05T12:16:04.002Z,91.63
2018-11-05T12:17:03.915Z,92.44
2018-11-05T12:18:03.852Z,93.49
2018-11-05T12:19:03.763Z,92.54
2018-11-05T12:20:03.677Z,92.44
2018-11-05T12:21:03.602Z,92.39
2018-11-05T12:22:03.528Z,91.82
2018-11-05T12:23:03.439Z,91.00
2018-11-05T12:24:03.367Z,90.33
2018-11-05T12:25:03.322Z,90.04
2018-11-05T12:26:03.203Z,90.28
2018-11-05T12:27:03.132Z,89.47
2018-11-05T12:28:03.040Z,89.94
2018-11-05T12:29:02.964Z,89.75
2018-11-05T12:30:02.906Z,89.42
2018-11-05T12:31:02.803Z,90.14
2018-11-05T12:32:02.747Z,89.47
2018-11-05T12:33:02.654Z,89.71
2018-11-05T12:34:02.566Z,90.09
2018-11-05T12:35:02.492Z,91.53
2018-11-05T12:36:02.416Z,91.00
2018-11-05T12:37:02.329Z,91.86
2018-11-05T12:38:02.256Z,92.15
2018-11-05T12:39:02.167Z,92.35
2018-11-05T12:40:02.094Z,92.82
2018-11-05T12:41:02.032Z,92.82
2018-11-05T12:42:01.929Z,93.21
2018-11-05T12:43:01.856Z,93.40
2018-11-05T12:44:01.779Z,93.30
2018-11-05T12:45:01.754Z,93.69
2018-11-05T12:46:01.629Z,93.74
2018-11-05T12:47:01.532Z,93.49
2018-11-05T12:48:01.458Z,93.11
2018-11-05T12:49:01.380Z,93.02
2018-11-05T12:50:01.297Z,93.98
2018-11-05T12:51:01.218Z,93.26